createdAt,value
2018-09-09T00:00:15.453Z,101764.02
2018-09-09T00:02:43.113Z,101768.86
2018-09-09T00:05:10.782Z,101769.97
2018-09-09T00:07:38.432Z,101779.77
2018-09-09T00:10:06.509Z,101777.60
2018-09-09T00:12:34.153Z,101777.15
2018-09-09T00:15:01.823Z,101782.30
2018-09-09T00:17:29.457Z,101786.39
2018-09-09T00:19:57.225Z,101778.42
2018-09-09T00:22:24.890Z,101782.57
2018-09-09T00:24:52.605Z,101783.54
2018-09-09T00:27:20.366Z,101782.02
2018-09-09T00:29:48.026Z,101777.69
2018-09-09T00:32:15.692Z,101782.66
2018-09-09T00:34:43.465Z,101773.91
2018-09-09T00:37:11.118Z,101770.74
2018-09-09T00:39:38.800Z,101777.78
2018-09-09T00:42:06.602Z,101778.48
2018-09-09T00:44:34.280Z,101773.78
2018-09-09T00:47:01.944Z,101775.34
2018-09-09T00:49:35.341Z,101783.45
2018-09-09T00:52:08.479Z,101780.78
2018-09-09T00:54:36.244Z,101782.30
2018-09-09T00:57:03.941Z,101789.56
2018-09-09T00:59:31.612Z,101792.43
2018-09-09T01:01:59.377Z,101797.17
2018-09-09T01:04:27.022Z,101799.65
2018-09-09T01:06:54.658Z,101799.19
2018-09-09T01:09:26.909Z,101800.63
2018-09-09T01:11:54.562Z,101790.03
2018-09-09T01:14:22.207Z,101797.62
2018-09-09T01:16:49.975Z,101793.77
2018-09-09T01:19:17.647Z,101793.53
2018-09-09T01:21:45.323Z,101793.53
2018-09-09T01:24:13.079Z,101790.40
2018-09-09T01:26:40.750Z,101799.10
2018-09-09T01:29:08.417Z,101792.23
2018-09-09T01:31:36.169Z,101792.52
2018-09-09T01:34:03.857Z,101792.61
2018-09-09T01:36:31.529Z,101795.27
2018-09-09T01:38:59.289Z,101792.61
2018-09-09T01:41:26.957Z,101795.47
2018-09-09T01:43:54.626Z,101794.67
2018-09-09T01:46:22.402Z,101791.78
2018-09-09T01:48:50.055Z,101795.33
2018-09-09T01:51:17.728Z,101800.67
2018-09-09T01:53:45.395Z,101814.16
2018-09-09T01:56:13.093Z,101808.08
2018-09-09T01:58:40.792Z,101809.50
2018-09-09T02:01:08.458Z,101814.89
2018-09-09T02:03:36.217Z,101809.83
2018-09-09T02:06:03.909Z,101806.47
2018-09-09T02:08:31.562Z,101802.19
2018-09-09T02:11:00.428Z,101799.65
2018-09-09T02:13:29.540Z,101803.89
2018-09-09T02:15:57.206Z,101799.79
2018-09-09T02:18:24.885Z,101796.02
2018-09-09T02:20:52.569Z,101795.41
2018-09-09T02:23:20.242Z,101802.45
2018-09-09T02:25:48.024Z,101797.17
2018-09-09T02:28:15.622Z,101794.03
2018-09-09T02:30:43.277Z,101797.81
2018-09-09T02:33:11.473Z,101805.23
2018-09-09T02:35:39.120Z,101802.92
2018-09-09T02:38:06.770Z,101800.02
2018-09-09T02:40:34.496Z,101802.69
2018-09-09T02:43:02.309Z,101807.47
2018-09-09T02:45:29.976Z,101807.47
2018-09-09T02:47:57.644Z,101814.76
2018-09-09T02:50:25.306Z,101813.65
2018-09-09T02:52:52.968Z,101820.47
2018-09-09T02:55:20.629Z,101808.07
2018-09-09T02:57:48.311Z,101804.80
2018-09-09T03:00:15.969Z,101811.12
2018-09-09T03:02:43.769Z,101803.94
2018-09-09T03:05:11.432Z,101813.55
2018-09-09T03:07:39.079Z,101815.25
2018-09-09T03:10:06.771Z,101812.22
2018-09-09T03:12:34.425Z,101817.42
2018-09-09T03:15:02.112Z,101816.69
2018-09-09T03:17:29.781Z,101812.36
2018-09-09T03:19:57.513Z,101817.42
2018-09-09T03:22:25.172Z,101823.86
2018-09-09T03:24:52.833Z,101812.68
2018-09-09T03:27:20.552Z,101813.78
2018-09-09T03:29:48.197Z,101809.77
2018-09-09T03:32:15.848Z,101810.14
2018-09-09T03:34:43.507Z,101809.16
2018-09-09T03:37:11.165Z,101806.69
2018-09-09T03:39:38.848Z,101805.35
2018-09-09T03:42:06.639Z,101807.42
2018-09-09T03:44:34.293Z,101807.05
2018-09-09T03:47:02.214Z,101811.28
2018-09-09T03:49:29.873Z,101817.45
2018-09-09T03:51:57.541Z,101816.11
2018-09-09T03:54:25.211Z,101811.52
2018-09-09T03:56:52.870Z,101813.36
2018-09-09T03:59:20.515Z,101815.53
2018-09-09T04:01:48.168Z,101812.16
2018-09-09T04:04:15.824Z,101812.02
2018-09-09T04:06:43.485Z,101811.78
2018-09-09T04:09:11.125Z,101811.55
2018-09-09T04:11:38.778Z,101814.12
2018-09-09T04:14:06.537Z,101817.05
2018-09-09T04:16:34.197Z,101814.69
2018-09-09T04:19:01.869Z,101815.53
2018-09-09T04:21:29.535Z,101818.45
2018-09-09T04:23:57.198Z,101823.20
2018-09-09T04:26:24.870Z,101821.49
2018-09-09T04:28:52.502Z,101831.52
2018-09-09T04:31:20.172Z,101822.83
2018-09-09T04:33:47.869Z,101829.51
2018-09-09T04:36:15.536Z,101829.81
2018-09-09T04:38:43.186Z,101836.87
2018-09-09T04:41:10.839Z,101835.13
2018-09-09T04:43:38.487Z,101837.29
2018-09-09T04:46:06.164Z,101835.23
2018-09-09T04:48:33.821Z,101838.70
2018-09-09T04:51:01.478Z,101842.39
2018-09-09T04:53:29.156Z,101841.95
2018-09-09T04:55:56.818Z,101843.28
2018-09-09T04:58:24.509Z,101837.47
2018-09-09T05:00:52.323Z,101847.31
2018-09-09T05:03:20.010Z,101852.70
2018-09-09T05:05:47.655Z,101851.25
2018-09-09T05:08:15.301Z,101852.20
2018-09-09T05:10:42.976Z,101857.08
2018-09-09T05:13:10.625Z,101861.39
2018-09-09T05:15:38.323Z,101859.84
2018-09-09T05:18:05.974Z,101856.85
2018-09-09T05:20:33.631Z,101853.75
2018-09-09T05:23:01.293Z,101865.97
2018-09-09T05:25:28.971Z,101864.27
2018-09-09T05:27:56.698Z,101870.34
2018-09-09T05:30:24.370Z,101865.53
2018-09-09T05:32:52.028Z,101861.89
2018-09-09T05:35:19.705Z,101873.31
2018-09-09T05:37:47.378Z,101873.91
2018-09-09T05:40:15.062Z,101865.90
2018-09-09T05:42:42.722Z,101862.73
2018-09-09T05:45:10.383Z,101870.45
2018-09-09T05:47:38.037Z,101879.43
2018-09-09T05:50:05.742Z,101880.54
2018-09-09T05:52:33.392Z,101879.58
2018-09-09T05:55:01.028Z,101885.41
2018-09-09T05:57:28.745Z,101889.56
2018-09-09T05:59:56.425Z,101893.08
2018-09-09T06:02:24.115Z,101892.02
2018-09-09T06:04:51.784Z,101900.77
2018-09-09T06:07:19.461Z,101892.62
2018-09-09T06:09:47.151Z,101890.70
2018-09-09T06:12:14.798Z,101898.86
2018-09-09T06:14:42.467Z,101900.94
2018-09-09T06:17:10.126Z,101907.80
2018-09-09T06:19:37.787Z,101899.78
2018-09-09T06:22:05.790Z,101904.53
2018-09-09T06:24:33.508Z,101906.11
2018-09-09T06:27:01.154Z,101910.75
2018-09-09T06:29:28.799Z,101910.75
2018-09-09T06:31:56.473Z,101914.91
2018-09-09T06:34:24.153Z,101913.12
2018-09-09T06:36:51.804Z,101918.73
2018-09-09T06:39:19.467Z,101922.25
2018-09-09T06:41:47.140Z,101916.91
2018-09-09T06:44:14.833Z,101919.95
2018-09-09T06:46:42.488Z,101917.41
2018-09-09T06:49:10.154Z,101922.77
2018-09-09T06:51:37.818Z,101933.72
2018-09-09T06:54:05.630Z,101926.81
2018-09-09T06:56:33.413Z,101932.03
2018-09-09T06:59:01.075Z,101933.96
2018-09-09T07:01:28.950Z,101936.77
2018-09-09T07:03:56.614Z,101944.20
2018-09-09T07:06:24.265Z,101940.83
2018-09-09T07:08:51.917Z,101951.97
2018-09-09T07:11:19.616Z,101940.83
2018-09-09T07:13:47.287Z,101941.20
2018-09-09T07:16:14.937Z,101942.31
2018-09-09T07:18:42.617Z,101944.66
2018-09-09T07:21:10.281Z,101946.36
2018-09-09T07:23:37.958Z,101951.95
2018-09-09T07:26:06.056Z,101949.41
2018-09-09T07:28:33.799Z,101952.22
2018-09-09T07:31:01.496Z,101950.88
2018-09-09T07:33:29.128Z,101953.55
2018-09-09T07:35:56.779Z,101956.00
2018-09-09T07:38:24.447Z,101957.20
2018-09-09T07:40:52.112Z,101961.57
2018-09-09T07:43:19.795Z,101962.54
2018-09-09T07:45:47.460Z,101961.44
2018-09-09T07:48:15.132Z,101963.56
2018-09-09T07:50:42.798Z,101967.57
2018-09-09T07:55:51.769Z,101967.90
2018-09-09T07:58:19.458Z,101973.05
2018-09-09T08:00:47.110Z,101971.35
2018-09-09T08:03:14.816Z,101972.64
2018-09-09T08:05:42.476Z,101971.84
2018-09-09T08:08:10.130Z,101978.86
2018-09-09T08:10:37.782Z,101981.27
2018-09-09T08:13:05.767Z,101974.11
2018-09-09T08:15:33.413Z,101975.45
2018-09-09T08:18:01.072Z,101974.80
2018-09-09T08:20:28.728Z,101973.24
2018-09-09T08:22:56.377Z,101973.52
2018-09-09T08:25:24.076Z,101971.81
2018-09-09T08:27:51.747Z,101973.78
2018-09-09T08:30:19.419Z,101972.69
2018-09-09T08:32:47.102Z,101979.74
2018-09-09T08:35:14.759Z,101975.36
2018-09-09T08:37:42.404Z,101982.13
2018-09-09T08:40:10.086Z,101982.19
2018-09-09T08:42:37.746Z,101981.39
2018-09-09T08:45:05.670Z,101984.80
2018-09-09T08:47:33.360Z,101985.91
2018-09-09T08:50:01.019Z,101980.46
2018-09-09T08:52:28.669Z,101985.11
2018-09-09T08:54:56.325Z,101984.74
2018-09-09T08:57:23.996Z,101983.78
2018-09-09T08:59:51.635Z,101988.16
2018-09-09T09:02:19.290Z,101991.57
2018-09-09T09:04:46.914Z,101987.94
2018-09-09T09:07:14.633Z,101986.45
2018-09-09T09:09:42.350Z,101996.31
2018-09-09T09:12:10.581Z,101990.88
2018-09-09T09:14:39.027Z,101999.41
2018-09-09T09:17:06.825Z,101994.69
2018-09-09T09:19:34.581Z,101989.34
2018-09-09T09:22:02.236Z,101989.95
2018-09-09T09:24:29.941Z,101985.09
2018-09-09T09:26:57.589Z,101987.17
2018-09-09T09:29:28.341Z,101985.23
2018-09-09T09:31:55.994Z,101986.67
2018-09-09T09:34:23.645Z,101984.12
2018-09-09T09:36:51.301Z,101986.20
2018-09-09T09:39:18.977Z,101987.20
2018-09-09T09:41:46.622Z,101985.16
2018-09-09T09:44:14.286Z,101979.94
2018-09-09T09:46:41.940Z,101979.07
2018-09-09T09:49:09.608Z,101974.56
2018-09-09T09:51:37.270Z,101976.53
2018-09-09T09:54:05.077Z,101973.84
2018-09-09T09:56:32.719Z,101986.63
2018-09-09T09:59:00.441Z,101967.80
2018-09-09T10:01:28.119Z,101970.70
2018-09-09T10:03:56.486Z,101973.98
2018-09-09T10:06:24.149Z,101978.13
2018-09-09T10:08:51.843Z,101979.13
2018-09-09T10:11:19.539Z,101979.38
2018-09-09T10:13:47.224Z,101980.71
2018-09-09T10:16:14.857Z,101987.53
2018-09-09T10:18:42.576Z,101983.39
2018-09-09T10:21:10.379Z,101986.20
2018-09-09T10:23:38.139Z,101985.94
2018-09-09T10:26:05.908Z,101995.20
2018-09-09T10:28:33.633Z,101993.25
2018-09-09T10:31:01.324Z,101995.80
2018-09-09T10:33:29.082Z,101998.11
2018-09-09T10:35:56.793Z,101996.43
2018-09-09T10:38:24.466Z,101997.27
2018-09-09T10:40:52.200Z,101995.32
2018-09-09T10:43:19.930Z,101998.73
2018-09-09T10:45:47.588Z,101998.61
2018-09-09T10:48:15.285Z,101995.44
2018-09-09T10:50:42.949Z,101995.34
2018-09-09T10:53:10.639Z,102001.30
2018-09-09T10:55:38.289Z,102000.69
2018-09-09T10:58:05.936Z,102000.31
2018-09-09T11:00:34.155Z,101992.66
2018-09-09T11:03:01.822Z,101987.17
2018-09-09T11:05:29.466Z,101990.94
2018-09-09T11:07:57.155Z,101988.63
2018-09-09T11:10:24.820Z,101987.05
2018-09-09T11:12:52.481Z,101988.27
2018-09-09T11:15:20.193Z,101989.00
2018-09-09T11:17:47.854Z,101987.19
2018-09-09T11:20:15.505Z,101985.22
2018-09-09T11:22:43.146Z,101986.80
2018-09-09T11:25:10.788Z,101986.94
2018-09-09T11:27:38.444Z,101985.22
2018-09-09T11:30:06.270Z,101984.97
2018-09-09T11:32:33.919Z,101980.70
2018-09-09T11:35:01.618Z,101982.19
2018-09-09T11:37:29.262Z,101972.08
2018-09-09T11:39:56.930Z,101977.06
2018-09-09T11:42:24.621Z,101976.33
2018-09-09T11:44:52.274Z,101980.97
2018-09-09T11:47:19.959Z,101973.05
2018-09-09T11:49:47.597Z,101972.09
2018-09-09T11:52:15.263Z,101977.30
2018-09-09T11:54:42.916Z,101968.80
2018-09-09T11:57:10.660Z,101968.06
2018-09-09T11:59:38.367Z,101962.34
2018-09-09T12:02:06.135Z,101971.58
2018-09-09T12:04:33.970Z,101960.41
2018-09-09T12:07:01.618Z,101889.27
2018-09-09T12:09:29.252Z,101970.02
2018-09-09T12:11:56.933Z,101964.77
2018-09-09T12:14:24.584Z,101970.12
2018-09-09T12:16:52.217Z,101970.09
2018-09-09T12:19:19.885Z,101968.66
2018-09-09T12:21:47.538Z,101962.80
2018-09-09T12:24:15.334Z,101969.63
2018-09-09T12:26:43.012Z,101962.34
2018-09-09T12:29:10.656Z,101968.67
2018-09-09T12:31:38.310Z,101964.40
2018-09-09T12:34:06.009Z,101969.05
2018-09-09T12:36:33.652Z,101960.52
2018-09-09T12:39:01.336Z,101958.55
2018-09-09T12:41:29.002Z,101973.64
2018-09-09T12:44:02.304Z,101828.44
2018-09-09T12:46:35.493Z,101968.86
2018-09-09T12:49:05.619Z,101973.02
2018-09-09T12:51:33.285Z,101971.05
2018-09-09T12:54:00.940Z,101971.85
2018-09-09T12:56:28.600Z,101973.59
2018-09-09T12:58:56.799Z,101973.86
2018-09-09T13:01:24.469Z,101974.05
2018-09-09T13:03:52.149Z,101977.50
2018-09-09T13:06:19.968Z,101970.88
2018-09-09T13:08:47.714Z,101978.07
2018-09-09T13:11:15.538Z,101980.75
2018-09-09T13:13:43.261Z,101972.35
2018-09-09T13:16:12.055Z,101973.13
2018-09-09T13:18:39.728Z,101976.00
2018-09-09T13:21:07.429Z,101978.57
2018-09-09T13:23:35.135Z,101984.56
2018-09-09T13:26:02.851Z,101981.28
2018-09-09T13:28:30.584Z,101983.52
2018-09-09T13:30:58.344Z,101979.41
2018-09-09T13:33:26.097Z,101981.88
2018-09-09T13:35:54.136Z,101981.52
2018-09-09T13:38:21.939Z,101980.07
2018-09-09T13:40:49.660Z,101978.13
2018-09-09T13:43:17.455Z,101979.56
2018-09-09T13:45:45.167Z,101978.00
2018-09-09T13:48:13.020Z,101988.94
2018-09-09T13:50:40.710Z,101983.84
2018-09-09T13:53:08.449Z,101988.70
2018-09-09T13:55:36.149Z,101986.26
2018-09-09T13:58:03.910Z,101982.61
2018-09-09T14:00:31.597Z,101976.55
2018-09-09T14:02:59.247Z,101975.81
2018-09-09T14:05:26.930Z,101978.36
2018-09-09T14:07:54.667Z,101978.50
2018-09-09T14:10:22.355Z,101975.34
2018-09-09T14:12:50.019Z,101986.42
2018-09-09T14:15:17.740Z,101978.50
2018-09-09T14:17:45.428Z,101985.55
2018-09-09T14:20:13.089Z,101987.73
2018-09-09T14:22:40.766Z,101987.97
2018-09-09T14:25:08.549Z,101987.60
2018-09-09T14:27:36.194Z,101988.44
2018-09-09T14:30:04.081Z,101995.02
2018-09-09T14:32:31.784Z,101989.74
2018-09-09T14:34:59.452Z,101985.59
2018-09-09T14:37:27.116Z,101986.59
2018-09-09T14:39:55.048Z,101989.91
2018-09-09T14:42:22.737Z,101987.84
2018-09-09T14:44:50.406Z,101980.04
2018-09-09T14:47:18.066Z,101979.81
2018-09-09T14:49:46.158Z,101985.66
2018-09-09T14:52:13.823Z,101983.32
2018-09-09T14:54:41.510Z,101986.59
2018-09-09T14:57:09.217Z,101990.11
2018-09-09T14:59:36.952Z,101991.92
2018-09-09T15:02:04.716Z,101995.56
2018-09-09T15:04:32.424Z,101993.86
2018-09-09T15:07:00.183Z,101989.14
2018-09-09T15:09:27.906Z,101991.85
2018-09-09T15:11:55.649Z,101993.39
2018-09-09T15:14:23.372Z,101994.12
2018-09-09T15:16:51.114Z,101995.77
2018-09-09T15:19:18.807Z,101998.11
2018-09-09T15:21:46.525Z,102003.59
2018-09-09T15:24:14.217Z,102005.89
2018-09-09T15:26:43.053Z,102000.78
2018-09-09T15:29:10.727Z,102001.84
2018-09-09T15:31:38.453Z,101996.16
2018-09-09T15:34:06.133Z,101994.97
2018-09-09T15:36:33.836Z,101994.23
2018-09-09T15:39:01.591Z,101996.03
2018-09-09T15:41:29.490Z,101995.33
2018-09-09T15:43:57.184Z,102003.32
2018-09-09T15:46:24.841Z,101993.95
2018-09-09T15:48:52.517Z,101999.54
2018-09-09T15:51:20.192Z,102003.69
2018-09-09T15:53:47.853Z,102007.16
2018-09-09T15:56:15.522Z,102012.13
2018-09-09T15:58:43.181Z,102006.50
2018-09-09T16:01:10.856Z,102005.17
2018-09-09T16:03:38.866Z,102006.00
2018-09-09T16:06:06.591Z,101994.90
2018-09-09T16:08:34.255Z,102003.75
2018-09-09T16:11:02.320Z,102003.57
2018-09-09T16:13:29.998Z,101996.23
2018-09-09T16:15:57.673Z,101993.92
2018-09-09T16:18:25.645Z,101991.40
2018-09-09T16:20:53.345Z,101992.36
2018-09-09T16:23:21.106Z,101999.28
2018-09-09T16:25:49.062Z,102001.44
2018-09-09T16:28:16.731Z,102003.52
2018-09-09T16:30:44.448Z,102001.81
2018-09-09T16:33:12.393Z,101994.41
2018-09-09T16:35:40.074Z,101991.52
2018-09-09T16:38:07.746Z,101998.42
2018-09-09T16:40:35.421Z,101994.85
2018-09-09T16:43:03.102Z,101995.72
2018-09-09T16:45:30.794Z,101998.33
2018-09-09T16:47:58.465Z,101931.23
2018-09-09T16:50:26.523Z,102002.68
2018-09-09T16:52:54.237Z,101997.41
2018-09-09T16:55:21.925Z,102000.95
2018-09-09T16:57:49.572Z,102003.90
2018-09-09T17:00:17.256Z,102013.89
2018-09-09T17:02:45.246Z,102018.62
2018-09-09T17:05:12.918Z,102021.44
2018-09-09T17:07:40.612Z,102020.69
2018-09-09T17:10:08.339Z,102014.91
2018-09-09T17:12:36.072Z,102011.36
2018-09-09T17:15:03.881Z,102014.62
2018-09-09T17:17:31.564Z,102015.28
2018-09-09T17:19:59.363Z,102019.94
2018-09-09T17:22:27.023Z,102016.41
2018-09-09T17:24:54.702Z,102020.78
2018-09-09T17:27:22.345Z,102019.88
2018-09-09T17:29:50.352Z,102020.34
2018-09-09T17:32:18.047Z,102016.93
2018-09-09T17:34:45.740Z,102015.81
2018-09-09T17:37:13.444Z,102018.88
2018-09-09T17:39:41.134Z,102019.20
2018-09-09T17:42:09.128Z,102022.28
2018-09-09T17:44:36.812Z,102022.12
2018-09-09T17:47:04.558Z,102019.05
2018-09-09T17:49:32.229Z,102029.67
2018-09-09T17:51:59.944Z,102028.25
2018-09-09T17:54:27.994Z,102039.50
2018-09-09T17:56:55.665Z,102040.25
2018-09-09T17:59:23.419Z,102031.99
2018-09-09T18:01:51.097Z,102039.38
2018-09-09T18:04:18.786Z,102035.04
2018-09-09T18:06:46.838Z,102038.30
2018-09-09T18:09:14.542Z,102040.21
2018-09-09T18:11:42.234Z,102037.67
2018-09-09T18:14:09.941Z,102050.42
2018-09-09T18:16:37.827Z,102039.38
2018-09-09T18:19:05.501Z,102048.78
2018-09-09T18:21:33.171Z,102051.13
2018-09-09T18:24:01.153Z,102048.67
2018-09-09T18:26:28.862Z,102058.63
2018-09-09T18:28:56.544Z,102059.88
2018-09-09T18:31:24.522Z,102045.62
2018-09-09T18:33:52.256Z,102049.16
2018-09-09T18:36:20.121Z,102053.41
2018-09-09T18:38:48.113Z,102057.23
2018-09-09T18:41:15.782Z,102051.73
2018-09-09T18:43:43.474Z,102055.94
2018-09-09T18:46:11.191Z,102062.83
2018-09-09T18:48:39.250Z,102053.65
2018-09-09T18:51:06.921Z,102058.26
2018-09-09T18:53:34.633Z,102053.88
2018-09-09T18:56:02.638Z,102058.74
2018-09-09T18:58:30.279Z,102060.59
2018-09-09T19:00:57.937Z,102055.81
2018-09-09T19:03:25.607Z,102055.27
2018-09-09T19:05:53.263Z,102063.66
2018-09-09T19:08:20.947Z,102054.30
2018-09-09T19:10:48.636Z,102049.91
2018-09-09T19:13:16.326Z,102050.20
2018-09-09T19:15:44.033Z,102063.27
2018-09-09T19:18:11.701Z,102055.04
2018-09-09T19:20:39.453Z,102063.64
2018-09-09T19:23:07.421Z,102064.61
2018-09-09T19:25:35.619Z,102058.05
2018-09-09T19:28:03.312Z,102063.17
2018-09-09T19:30:31.003Z,102058.41
2018-09-09T19:32:58.697Z,102056.13
2018-09-09T19:35:26.694Z,102054.22
2018-09-09T19:37:54.388Z,102057.45
2018-09-09T19:40:22.058Z,102047.66
2018-09-09T19:42:49.730Z,102051.83
2018-09-09T19:45:17.404Z,102054.62
2018-09-09T19:47:45.074Z,102054.61
2018-09-09T19:50:12.771Z,102051.09
2018-09-09T19:52:40.445Z,102048.42
2018-09-09T19:55:08.160Z,102053.87
2018-09-09T19:57:35.867Z,102053.57
2018-09-09T20:00:03.674Z,102053.19
2018-09-09T20:02:31.351Z,102057.19
2018-09-09T20:04:59.022Z,102053.38
2018-09-09T20:07:27.040Z,102056.61
2018-09-09T20:09:54.710Z,102054.30
2018-09-09T20:12:22.379Z,102047.11
2018-09-09T20:14:50.101Z,102050.45
2018-09-09T20:17:17.818Z,102047.95
2018-09-09T20:19:45.794Z,102055.17
2018-09-09T20:22:13.466Z,102055.94
2018-09-09T20:24:41.269Z,102051.82
2018-09-09T20:27:08.944Z,102051.94
2018-09-09T20:29:37.295Z,102054.87
2018-09-09T20:32:05.309Z,102050.73
2018-09-09T20:34:33.070Z,102051.67
2018-09-09T20:37:00.741Z,102044.83
2018-09-09T20:39:28.708Z,102044.03
2018-09-09T20:41:56.409Z,102047.58
2018-09-09T20:44:24.046Z,102045.66
2018-09-09T20:46:52.028Z,102039.13
2018-09-09T20:49:19.690Z,102038.38
2018-09-09T20:51:48.471Z,102045.40
2018-09-09T20:54:16.146Z,102039.89
2018-09-09T20:56:43.797Z,102037.68
2018-09-09T20:59:11.469Z,102038.26
2018-09-09T21:01:39.176Z,102040.42
2018-09-09T21:04:07.250Z,102037.19
2018-09-09T21:06:34.901Z,102035.41
2018-09-09T21:09:02.708Z,102031.49
2018-09-09T21:11:31.181Z,102033.13
2018-09-09T21:13:58.855Z,102028.95
2018-09-09T21:16:26.581Z,102024.76
2018-09-09T21:18:54.271Z,102022.20
2018-09-09T21:21:22.349Z,102023.55
2018-09-09T21:23:50.032Z,102027.91
2018-09-09T21:26:17.717Z,102021.15
2018-09-09T21:28:45.426Z,102031.52
2018-09-09T21:31:13.106Z,102024.86
2018-09-09T21:33:40.767Z,102026.15
2018-09-09T21:36:08.497Z,102027.39
2018-09-09T21:38:36.180Z,102028.12
2018-09-09T21:41:03.916Z,102022.77
2018-09-09T21:43:31.974Z,102029.09
2018-09-09T21:45:59.675Z,102021.67
2018-09-09T21:48:27.377Z,102022.63
2018-09-09T21:50:55.165Z,102025.11
2018-09-09T21:53:23.383Z,102023.94
2018-09-09T21:55:51.345Z,102020.17
2018-09-09T21:58:19.041Z,102026.17
2018-09-09T22:01:53.686Z,102023.97
2018-09-09T22:04:21.354Z,102026.42
2018-09-09T22:06:49.028Z,102022.56
2018-09-09T22:09:16.713Z,102022.44
2018-09-09T22:11:44.373Z,102012.20
2018-09-09T22:14:12.045Z,102020.30
2018-09-09T22:16:39.703Z,102023.45
2018-09-09T22:19:07.497Z,102026.29
2018-09-09T22:21:35.141Z,102017.50
2018-09-09T22:24:02.832Z,102017.07
2018-09-09T22:26:30.560Z,102012.98
2018-09-09T22:28:58.529Z,102017.89
2018-09-09T22:31:26.233Z,102019.34
2018-09-09T22:33:53.934Z,102021.02
2018-09-09T22:36:21.661Z,102015.47
2018-09-09T22:38:49.330Z,102010.72
2018-09-09T22:41:17.083Z,102010.61
2018-09-09T22:43:44.742Z,102013.13
2018-09-09T22:46:12.726Z,102007.11
2018-09-09T22:48:40.409Z,102010.20
2018-09-09T22:51:08.065Z,102014.00
2018-09-09T22:53:35.733Z,102006.78
2018-09-09T22:56:03.681Z,102012.86
2018-09-09T22:58:31.374Z,102013.63
2018-09-09T23:00:59.038Z,102014.77
2018-09-09T23:03:27.009Z,102013.80
2018-09-09T23:05:54.670Z,102004.88
2018-09-09T23:08:22.382Z,102008.41
2018-09-09T23:10:50.401Z,102007.87
2018-09-09T23:13:18.079Z,102007.95
2018-09-09T23:15:45.839Z,101997.05
2018-09-09T23:18:13.525Z,101993.24
2018-09-09T23:20:41.255Z,101993.42
2018-09-09T23:23:08.943Z,101995.03
2018-09-09T23:25:37.013Z,101999.17
2018-09-09T23:28:04.814Z,101991.20
2018-09-09T23:30:32.472Z,101990.05
2018-09-09T23:33:00.137Z,101997.80
2018-09-09T23:35:28.189Z,101996.86
2018-09-09T23:37:55.885Z,101991.77
2018-09-09T23:40:23.560Z,101991.58
2018-09-09T23:42:51.214Z,101992.91
2018-09-09T23:45:18.878Z,101985.77
2018-09-09T23:47:57.085Z,101991.84
2018-09-09T23:50:24.763Z,101992.53
2018-09-09T23:52:52.420Z,101983.94
2018-09-09T23:55:20.091Z,101983.59
2018-09-09T23:57:48.149Z,101985.23
